Time;durP1;ratioP1;P1;durP2;ratioP2;P2;SDS_P1;SDS_P2;PMS_P1;PMS_P2;Temp;Humidity;BMP_temperature;BMP_pressure;BME280_temperature;BME280_humidity;BME280_pressure;Samples;Min_cycle;Max_cycle;Signal;HPM_P1;HPM_P2
2023/12/04 00:01:15;;;;;;;24.83;13.57;;;-2.30;99.90;;;;;;4886052;29;20561;-93
2023/12/04 00:03:41;;;;;;;21.60;13.07;;;-2.30;99.90;;;;;;4885892;29;20189;-92
2023/12/04 00:06:07;;;;;;;21.60;13.00;;;-2.30;99.90;;;;;;4885968;29;20203;-92
2023/12/04 00:08:34;;;;;;;23.13;13.37;;;-2.40;99.90;;;;;;4886163;29;20175;-92
2023/12/04 00:10:59;;;;;;;22.17;13.77;;;-2.40;99.90;;;;;;4885196;29;20176;-91
2023/12/04 00:13:25;;;;;;;25.67;13.47;;;-2.30;99.90;;;;;;4886002;29;20174;-92
2023/12/04 00:15:51;;;;;;;23.27;13.70;;;-2.40;99.90;;;;;;4885851;29;20222;-91
2023/12/04 00:18:16;;;;;;;24.20;14.13;;;-2.40;99.90;;;;;;4885913;29;20171;-92
2023/12/04 00:20:42;;;;;;;21.33;12.43;;;-2.40;99.90;;;;;;4897598;29;20194;-92
2023/12/04 00:23:08;;;;;;;22.27;12.90;;;-2.40;99.90;;;;;;4904646;29;20198;-90
2023/12/04 00:25:35;;;;;;;22.23;13.33;;;-2.30;99.90;;;;;;4889331;29;20195;-90
2023/12/04 00:28:00;;;;;;;23.50;13.13;;;-2.30;99.90;;;;;;4885623;29;20178;-91
2023/12/04 00:30:26;;;;;;;24.80;13.77;;;-2.30;99.90;;;;;;4885859;29;20171;-92
2023/12/04 00:32:52;;;;;;;22.50;12.80;;;-2.40;99.90;;;;;;4885436;29;20223;-91
2023/12/04 00:35:17;;;;;;;22.67;12.70;;;-2.40;99.90;;;;;;4885511;29;20178;-93
2023/12/04 00:37:43;;;;;;;22.03;12.93;;;-2.40;99.90;;;;;;4885288;29;20168;-92
2023/12/04 00:40:09;;;;;;;24.43;13.30;;;-2.40;99.90;;;;;;4885873;29;20231;-92
2023/12/04 00:45:05;;;;;;;19.97;13.10;;;-2.40;99.90;;;;;;4928243;29;20253;-83
2023/12/04 00:47:30;;;;;;;24.17;14.00;;;-2.40;99.90;;;;;;4922668;29;20197;-84
2023/12/04 00:49:56;;;;;;;27.17;14.63;;;-2.50;99.90;;;;;;4922431;29;20213;-84
2023/12/04 00:52:22;;;;;;;23.70;13.70;;;-2.40;99.90;;;;;;4922551;29;20233;-84
2023/12/04 00:54:47;;;;;;;24.83;13.63;;;-2.40;99.90;;;;;;4939319;29;20193;-83
2023/12/04 00:57:13;;;;;;;24.27;13.60;;;-2.40;99.90;;;;;;4939454;29;20186;-83
2023/12/04 00:59:39;;;;;;;23.80;13.70;;;-2.40;99.90;;;;;;4922344;29;20190;-86
2023/12/04 01:02:06;;;;;;;24.50;13.23;;;-2.40;99.90;;;;;;4907638;29;20269;-86
2023/12/04 01:04:32;;;;;;;24.07;13.37;;;-2.30;99.90;;;;;;4921091;29;20228;-86
2023/12/04 01:06:57;;;;;;;22.47;13.97;;;-2.30;99.90;;;;;;4921115;29;20274;-84
2023/12/04 01:09:24;;;;;;;23.43;13.10;;;-2.30;99.90;;;;;;4921739;29;20195;-83
2023/12/04 01:11:53;;;;;;;22.53;13.93;;;-2.30;99.90;;;;;;4921998;29;20190;-83
2023/12/04 01:14:19;;;;;;;23.33;13.67;;;-2.30;99.90;;;;;;4938441;29;20197;-83
2023/12/04 01:16:45;;;;;;;24.17;13.90;;;-2.30;99.90;;;;;;4922029;29;20190;-83
2023/12/04 01:19:11;;;;;;;25.33;14.27;;;-2.30;99.90;;;;;;4921786;29;20252;-83
2023/12/04 01:21:37;;;;;;;23.00;13.53;;;-2.30;99.90;;;;;;4939010;29;20182;-84
2023/12/04 01:24:03;;;;;;;23.30;14.23;;;-2.20;99.90;;;;;;4938985;29;20189;-84
2023/12/04 01:26:29;;;;;;;25.90;13.83;;;-2.20;99.90;;;;;;4921478;29;20190;-84
2023/12/04 01:28:55;;;;;;;24.03;14.20;;;-2.20;99.90;;;;;;4921742;29;20596;-84
2023/12/04 01:31:20;;;;;;;23.90;14.07;;;-2.20;99.90;;;;;;4938646;29;20182;-84
2023/12/04 01:33:46;;;;;;;24.70;13.83;;;-2.20;99.90;;;;;;4921937;29;20514;-84
2023/12/04 01:36:12;;;;;;;23.20;13.57;;;-2.20;99.90;;;;;;4913837;29;20221;-84
2023/12/04 01:38:38;;;;;;;22.03;12.67;;;-2.20;99.90;;;;;;4913804;29;20644;-84
2023/12/04 01:41:04;;;;;;;24.50;13.47;;;-2.20;99.90;;;;;;4938504;29;20234;-83
2023/12/04 01:43:30;;;;;;;23.53;12.97;;;-2.20;99.90;;;;;;4938204;29;20230;-84
2023/12/04 01:45:57;;;;;;;22.80;13.20;;;-2.20;99.90;;;;;;4938536;29;20206;-84
2023/12/04 01:48:25;;;;;;;24.00;13.70;;;-2.10;99.90;;;;;;4921023;29;20189;-84
2023/12/04 01:50:52;;;;;;;24.13;12.87;;;-2.10;99.90;;;;;;4921572;29;20190;-84
2023/12/04 01:53:18;;;;;;;23.37;12.13;;;-2.10;99.90;;;;;;4938088;29;20188;-83
2023/12/04 01:55:44;;;;;;;21.73;12.60;;;-2.10;99.90;;;;;;4938134;29;20303;-84
2023/12/04 01:58:10;;;;;;;21.87;13.00;;;-2.10;99.90;;;;;;4921249;29;20276;-84
2023/12/04 02:00:36;;;;;;;24.30;13.17;;;-2.20;99.90;;;;;;4938335;29;20312;-84
2023/12/04 02:03:02;;;;;;;24.57;12.77;;;-2.10;99.90;;;;;;4938191;29;20209;-84
2023/12/04 02:05:30;;;;;;;21.13;12.97;;;-2.20;99.90;;;;;;4938029;29;20288;-84
2023/12/04 02:07:55;;;;;;;20.63;12.60;;;-2.10;99.90;;;;;;4921406;29;20186;-84
2023/12/04 02:10:22;;;;;;;20.60;12.23;;;-2.10;99.90;;;;;;4920653;29;20269;-83
2023/12/04 02:12:49;;;;;;;21.77;12.63;;;-2.10;99.90;;;;;;4937794;29;20216;-84
2023/12/04 02:15:14;;;;;;;20.30;11.87;;;-2.10;99.90;;;;;;4921085;29;20186;-84
2023/12/04 02:17:42;;;;;;;19.67;12.13;;;-2.10;99.90;;;;;;4937382;29;20741;-85
2023/12/04 02:20:09;;;;;;;18.93;11.87;;;-2.00;99.90;;;;;;4921146;29;20190;-86
2023/12/04 02:22:34;;;;;;;20.57;12.80;;;-2.00;99.90;;;;;;4920917;29;20182;-86
2023/12/04 02:25:01;;;;;;;20.90;12.40;;;-2.00;99.90;;;;;;4920640;29;20608;-86
2023/12/04 02:27:32;;;;;;;22.70;12.90;;;-2.10;99.90;;;;;;4937535;29;20212;-86
2023/12/04 02:30:05;;;;;;;19.97;12.90;;;-2.00;99.90;;;;;;4920544;29;20185;-86
2023/12/04 02:32:33;;;;;;;19.17;11.50;;;-2.00;99.90;;;;;;4937306;29;20189;-86
2023/12/04 02:35:03;;;;;;;20.53;12.63;;;-2.00;99.90;;;;;;4937824;29;20189;-87
2023/12/04 02:37:30;;;;;;;22.97;12.77;;;-2.00;99.90;;;;;;4937436;29;20186;-86
2023/12/04 02:39:56;;;;;;;19.33;11.87;;;-2.00;99.90;;;;;;4920361;29;20521;-86
2023/12/04 02:42:25;;;;;;;19.93;11.93;;;-2.00;99.90;;;;;;4937259;29;20653;-86
2023/12/04 02:44:51;;;;;;;23.07;12.30;;;-2.00;99.90;;;;;;4920392;29;20246;-86
2023/12/04 02:47:17;;;;;;;22.07;12.73;;;-2.00;99.90;;;;;;4920513;29;20564;-87
2023/12/04 02:49:43;;;;;;;22.80;12.00;;;-2.00;99.90;;;;;;4937474;29;20189;-86
2023/12/04 02:52:09;;;;;;;20.30;12.20;;;-2.00;99.90;;;;;;4937382;29;20182;-86
2023/12/04 02:54:34;;;;;;;21.43;11.97;;;-2.00;99.90;;;;;;4937022;29;20586;-86
2023/12/04 02:57:00;;;;;;;19.03;11.93;;;-2.00;99.90;;;;;;4920440;29;20600;-85
2023/12/04 02:59:26;;;;;;;20.20;11.37;;;-1.90;99.90;;;;;;4920316;29;20196;-86
2023/12/04 03:01:52;;;;;;;20.63;12.20;;;-1.90;99.90;;;;;;4920129;29;20185;-86
2023/12/04 03:04:19;;;;;;;20.47;12.30;;;-1.90;99.90;;;;;;4920286;29;20221;-85
2023/12/04 03:06:45;;;;;;;18.77;11.90;;;-1.90;99.90;;;;;;4919313;29;20209;-86
2023/12/04 03:09:11;;;;;;;23.57;11.27;;;-1.90;99.90;;;;;;4919954;29;20224;-87
2023/12/04 03:11:40;;;;;;;18.67;11.00;;;-1.90;99.90;;;;;;4893191;29;20201;-87
2023/12/04 03:14:06;;;;;;;21.13;11.73;;;-1.90;99.90;;;;;;4918415;29;20183;-86
2023/12/04 03:16:32;;;;;;;17.57;10.27;;;-1.80;99.90;;;;;;4936500;29;20193;-87
2023/12/04 03:18:57;;;;;;;18.33;11.17;;;-1.80;99.90;;;;;;4937158;29;20193;-87
2023/12/04 03:21:23;;;;;;;19.10;11.20;;;-1.80;99.90;;;;;;4929018;29;20621;-86
2023/12/04 03:23:49;;;;;;;18.03;10.70;;;-1.80;99.90;;;;;;4937293;29;20220;-86
2023/12/04 03:26:14;;;;;;;20.03;10.80;;;-1.80;99.90;;;;;;4919744;29;20229;-86
2023/12/04 03:28:40;;;;;;;19.60;11.47;;;-1.70;99.90;;;;;;4919968;29;20617;-86
2023/12/04 03:31:06;;;;;;;16.30;10.40;;;-1.80;99.90;;;;;;4920075;29;20216;-87
2023/12/04 03:33:32;;;;;;;18.00;10.40;;;-1.70;99.90;;;;;;4919855;29;20194;-87
2023/12/04 03:35:59;;;;;;;17.47;10.20;;;-1.70;99.90;;;;;;4919467;29;20209;-87
2023/12/04 03:38:25;;;;;;;19.63;11.73;;;-1.70;99.90;;;;;;4919875;29;20688;-87
2023/12/04 03:40:51;;;;;;;19.20;10.73;;;-1.70;99.90;;;;;;4919698;29;20198;-87
2023/12/04 03:43:16;;;;;;;18.40;10.67;;;-1.70;99.90;;;;;;4919822;29;20719;-87
2023/12/04 03:45:42;;;;;;;16.87;10.57;;;-1.70;99.90;;;;;;4916195;29;20705;-88
2023/12/04 03:48:08;;;;;;;18.23;11.10;;;-1.70;99.90;;;;;;4901465;29;20202;-86
2023/12/04 03:50:33;;;;;;;16.53;10.40;;;-1.70;99.90;;;;;;4906625;29;20224;-86
2023/12/04 03:53:00;;;;;;;16.03;10.23;;;-1.70;99.90;;;;;;4928909;29;20182;-86
2023/12/04 03:55:26;;;;;;;18.10;10.40;;;-1.70;99.90;;;;;;4912169;29;20221;-86
2023/12/04 03:57:53;;;;;;;17.90;10.77;;;-1.60;99.90;;;;;;4916861;29;20603;-87
2023/12/04 04:00:19;;;;;;;17.07;10.70;;;-1.60;99.90;;;;;;4911270;29;20194;-87
2023/12/04 04:02:44;;;;;;;18.23;10.33;;;-1.60;99.90;;;;;;4912394;29;20620;-87
2023/12/04 04:05:10;;;;;;;15.27;9.53;;;-1.60;99.90;;;;;;4936674;29;20217;-88
2023/12/04 04:07:36;;;;;;;16.83;9.93;;;-1.60;99.90;;;;;;4919660;29;20197;-87
2023/12/04 04:10:04;;;;;;;16.93;9.97;;;-1.60;99.90;;;;;;4919219;29;20622;-87
2023/12/04 04:12:30;;;;;;;18.03;10.10;;;-1.60;99.90;;;;;;4919811;29;20197;-87
2023/12/04 04:14:56;;;;;;;15.93;9.87;;;-1.60;99.90;;;;;;4936596;29;20610;-87
2023/12/04 04:17:25;;;;;;;19.27;10.00;;;-1.50;99.90;;;;;;4919450;29;20186;-87
2023/12/04 04:19:51;;;;;;;16.20;9.40;;;-1.60;99.90;;;;;;4919639;29;20205;-87
2023/12/04 04:22:16;;;;;;;16.17;9.57;;;-1.50;99.90;;;;;;4911644;29;20191;-88
2023/12/04 04:24:43;;;;;;;15.23;9.47;;;-1.50;99.90;;;;;;4911927;29;20224;-87
2023/12/04 04:27:08;;;;;;;15.53;8.73;;;-1.50;99.90;;;;;;4928626;29;20272;-88
2023/12/04 04:29:34;;;;;;;14.33;8.73;;;-1.50;99.90;;;;;;4936647;29;20217;-89
2023/12/04 04:32:00;;;;;;;15.77;9.57;;;-1.50;99.90;;;;;;4911967;29;20194;-88
2023/12/04 04:34:25;;;;;;;14.73;8.87;;;-1.40;99.90;;;;;;4936501;29;20178;-89
2023/12/04 04:36:51;;;;;;;14.80;9.43;;;-1.40;99.90;;;;;;4936560;29;20200;-89
2023/12/04 04:39:17;;;;;;;14.83;9.37;;;-1.40;99.90;;;;;;4919382;29;20216;-88
2023/12/04 04:41:43;;;;;;;15.40;8.53;;;-1.40;99.90;;;;;;4922884;29;20240;-89
2023/12/04 04:44:09;;;;;;;14.17;8.87;;;-1.40;99.90;;;;;;4922661;29;20288;-87
2023/12/04 04:46:35;;;;;;;13.90;8.60;;;-1.40;99.90;;;;;;4922727;29;20194;-88
2023/12/04 04:49:01;;;;;;;15.97;9.13;;;-1.40;99.90;;;;;;4922838;29;20204;-89
2023/12/04 04:51:29;;;;;;;14.87;9.20;;;-1.30;99.90;;;;;;4923026;29;20237;-89
2023/12/04 04:53:55;;;;;;;14.30;8.90;;;-1.40;99.90;;;;;;4922867;29;20535;-89
2023/12/04 04:56:21;;;;;;;14.70;9.10;;;-1.40;99.90;;;;;;4921446;29;20683;-89
2023/12/04 04:58:46;;;;;;;15.33;8.83;;;-1.30;99.90;;;;;;4916115;29;20193;-87
2023/12/04 05:01:12;;;;;;;16.30;9.40;;;-1.30;99.90;;;;;;4920643;29;20194;-88
2023/12/04 05:03:38;;;;;;;14.47;8.80;;;-1.30;99.90;;;;;;4923611;29;20228;-90
2023/12/04 05:06:04;;;;;;;16.70;9.67;;;-1.30;99.90;;;;;;4922651;29;20217;-90
2023/12/04 05:08:29;;;;;;;15.60;9.03;;;-1.30;99.90;;;;;;4922549;29;20193;-88
2023/12/04 05:10:55;;;;;;;15.60;9.03;;;-1.30;99.90;;;;;;4939394;29;20218;-87
2023/12/04 05:13:21;;;;;;;15.77;8.80;;;-1.20;99.90;;;;;;4920819;29;20241;-89
2023/12/04 05:15:47;;;;;;;17.47;8.80;;;-1.30;99.90;;;;;;4922696;29;20257;-89
2023/12/04 05:18:13;;;;;;;14.93;8.27;;;-1.20;99.90;;;;;;4922343;29;20194;-89
2023/12/04 05:20:39;;;;;;;13.77;7.93;;;-1.20;99.90;;;;;;4939449;29;20193;-90
2023/12/04 05:23:04;;;;;;;14.50;7.90;;;-1.20;99.90;;;;;;4939122;29;20209;-91
2023/12/04 05:25:30;;;;;;;18.20;8.77;;;-1.20;99.90;;;;;;4914248;29;20218;-90
2023/12/04 05:27:57;;;;;;;13.10;8.53;;;-1.20;99.90;;;;;;4922501;29;20643;-89
2023/12/04 05:30:22;;;;;;;15.23;8.33;;;-1.10;99.90;;;;;;4938996;29;20205;-90
2023/12/04 05:32:48;;;;;;;14.60;8.70;;;-1.20;99.90;;;;;;4921761;29;20193;-89
2023/12/04 05:35:16;;;;;;;13.50;8.70;;;-1.10;99.90;;;;;;4922255;29;20198;-89
2023/12/04 05:37:41;;;;;;;15.10;8.27;;;-1.10;99.90;;;;;;4910495;29;20562;-88
2023/12/04 05:40:08;;;;;;;14.10;8.17;;;-1.10;99.90;;;;;;4910734;29;20202;-87
2023/12/04 05:42:34;;;;;;;14.63;8.67;;;-1.10;99.90;;;;;;4922621;29;20182;-89
2023/12/04 05:45:00;;;;;;;13.57;8.10;;;-1.10;99.90;;;;;;4924247;29;20240;-89
2023/12/04 05:47:26;;;;;;;13.10;7.80;;;-1.10;99.90;;;;;;4912608;29;20186;-89
2023/12/04 05:49:52;;;;;;;11.73;7.90;;;-1.10;99.90;;;;;;4921412;29;20333;-87
2023/12/04 05:52:17;;;;;;;13.57;7.93;;;-1.10;99.90;;;;;;4937115;29;20186;-89
2023/12/04 05:54:43;;;;;;;12.27;7.47;;;-1.00;99.90;;;;;;4925656;29;20730;-88
2023/12/04 05:57:09;;;;;;;12.23;7.73;;;-1.10;99.90;;;;;;4904448;29;20194;-89
2023/12/04 05:59:34;;;;;;;13.23;7.63;;;-1.00;99.90;;;;;;4921279;29;20186;-89
2023/12/04 06:02:01;;;;;;;13.27;8.10;;;-1.00;99.90;;;;;;4913896;29;20194;-88
2023/12/04 06:04:27;;;;;;;12.40;7.77;;;-1.00;99.90;;;;;;4921279;29;20598;-90
2023/12/04 06:06:52;;;;;;;12.27;7.50;;;-1.00;99.90;;;;;;4937960;29;20216;-88
2023/12/04 06:09:18;;;;;;;11.73;7.30;;;-0.90;99.90;;;;;;4921632;29;20193;-90
2023/12/04 06:11:44;;;;;;;11.17;6.90;;;-1.00;99.90;;;;;;4937287;29;20190;-90
2023/12/04 06:14:10;;;;;;;12.00;6.67;;;-0.90;99.90;;;;;;4938576;29;20193;-89
2023/12/04 06:16:36;;;;;;;10.60;6.57;;;-0.90;99.90;;;;;;4921375;29;20281;-89
2023/12/04 06:19:04;;;;;;;10.73;6.87;;;-0.80;99.90;;;;;;4914796;29;20236;-90
2023/12/04 06:21:30;;;;;;;11.07;7.13;;;-0.80;99.90;;;;;;4920314;29;20613;-91
2023/12/04 06:23:57;;;;;;;10.50;6.70;;;-0.80;99.90;;;;;;4920510;29;20277;-89
2023/12/04 06:26:23;;;;;;;11.13;6.67;;;-0.80;99.90;;;;;;4920004;29;20222;-91
2023/12/04 06:28:49;;;;;;;11.57;6.87;;;-0.80;99.90;;;;;;4938110;29;20182;-89
2023/12/04 06:31:15;;;;;;;11.23;6.47;;;-0.80;99.90;;;;;;4921027;29;20872;-90
2023/12/04 06:33:41;;;;;;;9.93;7.03;;;-0.80;99.90;;;;;;4898883;29;20185;-91
2023/12/04 06:36:07;;;;;;;10.53;6.70;;;-0.80;99.90;;;;;;4938387;29;20181;-88
2023/12/04 06:38:37;;;;;;;13.73;7.50;;;-0.80;99.90;;;;;;4920957;29;20245;-89
2023/12/04 06:41:04;;;;;;;10.27;6.50;;;-0.80;99.90;;;;;;4937815;29;20535;-88
2023/12/04 06:43:30;;;;;;;9.77;6.67;;;-0.80;99.90;;;;;;4921007;29;20238;-88
2023/12/04 06:45:58;;;;;;;10.93;7.03;;;-0.70;99.90;;;;;;4913292;29;20218;-88
2023/12/04 06:48:30;;;;;;;9.30;6.37;;;-0.80;99.90;;;;;;4937965;29;20174;-89
2023/12/04 06:50:56;;;;;;;8.90;6.03;;;-0.80;99.90;;;;;;4921206;29;20220;-89
2023/12/04 06:53:22;;;;;;;11.87;7.30;;;-0.70;99.90;;;;;;4937599;29;20619;-89
2023/12/04 06:55:47;;;;;;;8.93;5.83;;;-0.70;99.90;;;;;;4936931;29;20216;-90
2023/12/04 06:58:14;;;;;;;10.07;5.60;;;-0.70;99.90;;;;;;4937596;29;20225;-89
2023/12/04 07:00:40;;;;;;;10.00;6.40;;;-0.70;99.90;;;;;;4913182;29;20201;-90
2023/12/04 07:03:06;;;;;;;9.57;6.67;;;-0.70;99.90;;;;;;4920547;29;20251;-90
2023/12/04 07:05:32;;;;;;;8.43;5.57;;;-0.70;99.90;;;;;;4937703;29;20225;-91
2023/12/04 07:08:02;;;;;;;9.57;6.27;;;-0.70;99.90;;;;;;4920877;29;20233;-90
2023/12/04 07:10:28;;;;;;;9.03;6.13;;;-0.70;99.90;;;;;;4920654;29;20288;-89
2023/12/04 07:12:54;;;;;;;11.07;6.70;;;-0.70;99.90;;;;;;4937853;29;20737;-90
2023/12/04 07:15:19;;;;;;;10.17;5.90;;;-0.70;99.90;;;;;;4920938;29;20190;-88
2023/12/04 07:17:45;;;;;;;10.00;6.53;;;-0.70;99.90;;;;;;4913099;29;20182;-83
2023/12/04 07:20:11;;;;;;;9.60;6.30;;;-0.70;99.90;;;;;;4937600;29;20188;-88
2023/12/04 07:22:37;;;;;;;11.20;6.93;;;-0.70;99.90;;;;;;4912969;29;20643;-89
2023/12/04 07:25:03;;;;;;;10.97;6.73;;;-0.70;99.90;;;;;;4916525;29;20206;-89
2023/12/04 07:27:30;;;;;;;11.00;6.93;;;-0.70;99.90;;;;;;4919609;29;20189;-89
2023/12/04 07:29:55;;;;;;;11.40;6.93;;;-0.70;99.90;;;;;;4914709;29;20210;-88
2023/12/04 07:32:21;;;;;;;11.50;7.17;;;-0.70;99.90;;;;;;4901703;29;20677;-88
2023/12/04 07:34:47;;;;;;;11.13;7.07;;;-0.70;99.90;;;;;;4906036;29;20276;-88
2023/12/04 07:37:13;;;;;;;10.73;6.70;;;-0.70;99.90;;;;;;4912653;29;20381;-88
2023/12/04 07:39:38;;;;;;;11.00;6.37;;;-0.70;99.90;;;;;;4901724;29;20194;-89
2023/12/04 07:42:04;;;;;;;9.93;6.53;;;-0.70;99.90;;;;;;4901389;29;20194;-86
2023/12/04 07:44:30;;;;;;;10.80;6.90;;;-0.70;99.90;;;;;;4909988;29;20234;-89
2023/12/04 07:46:57;;;;;;;10.27;6.60;;;-0.70;99.90;;;;;;4937335;29;21011;-91
2023/12/04 07:49:23;;;;;;;10.90;6.37;;;-0.70;99.90;;;;;;4920358;29;20505;-89
2023/12/04 07:51:48;;;;;;;11.37;6.77;;;-0.70;99.90;;;;;;4920618;29;20245;-91
2023/12/04 07:54:14;;;;;;;10.50;6.93;;;-0.60;99.90;;;;;;4920233;29;20201;-88
2023/12/04 07:56:40;;;;;;;10.30;6.40;;;-0.60;99.90;;;;;;4914082;29;20247;-89
2023/12/04 07:59:09;;;;;;;12.00;7.33;;;-0.60;99.90;;;;;;4908407;29;20253;-89
2023/12/04 08:01:35;;;;;;;10.63;6.97;;;-0.60;99.90;;;;;;4903716;29;20206;-88
2023/12/04 08:04:00;;;;;;;10.63;7.13;;;-0.60;99.90;;;;;;4937660;29;20743;-90
2023/12/04 08:06:26;;;;;;;10.60;7.10;;;-0.60;99.90;;;;;;4913011;29;20653;-90
2023/12/04 08:08:54;;;;;;;11.23;6.77;;;-0.60;99.90;;;;;;4920145;29;20199;-90
2023/12/04 08:11:20;;;;;;;11.47;7.13;;;-0.60;99.90;;;;;;4927350;29;20178;-89
2023/12/04 08:13:45;;;;;;;12.33;7.43;;;-0.60;99.90;;;;;;4913272;29;20578;-88
2023/12/04 08:16:15;;;;;;;11.57;7.30;;;-0.60;99.90;;;;;;4922785;29;20328;-89
2023/12/04 08:18:41;;;;;;;12.10;7.47;;;-0.60;99.90;;;;;;4940658;29;20249;-89
2023/12/04 08:21:07;;;;;;;11.43;7.70;;;-0.60;99.90;;;;;;4924172;29;20221;-90
2023/12/04 08:23:32;;;;;;;11.00;7.07;;;-0.60;99.90;;;;;;4923874;29;20198;-90
2023/12/04 08:25:58;;;;;;;11.87;7.23;;;-0.60;99.90;;;;;;4940952;29;20221;-90
2023/12/04 08:28:24;;;;;;;11.30;7.63;;;-0.50;99.90;;;;;;4904691;29;20255;-89
2023/12/04 08:30:49;;;;;;;12.00;7.90;;;-0.50;99.90;;;;;;4917817;29;20197;-89
2023/12/04 08:33:16;;;;;;;14.67;8.47;;;-0.50;99.90;;;;;;4923650;29;20245;-89
2023/12/04 08:35:41;;;;;;;13.17;7.30;;;-0.50;99.90;;;;;;4923420;29;20201;-89
2023/12/04 08:38:07;;;;;;;13.17;7.40;;;-0.40;99.90;;;;;;4932338;29;20701;-90
2023/12/04 08:40:33;;;;;;;11.77;7.30;;;-0.40;99.90;;;;;;4923717;29;20202;-88
2023/12/04 08:42:58;;;;;;;12.80;7.53;;;-0.40;99.90;;;;;;4916025;29;20621;-88
2023/12/04 08:45:24;;;;;;;11.60;7.33;;;-0.40;99.90;;;;;;4923397;29;20218;-90
2023/12/04 08:47:53;;;;;;;10.77;7.17;;;-0.40;99.90;;;;;;4923192;29;20186;-88
2023/12/04 08:50:19;;;;;;;11.70;7.47;;;-0.30;99.90;;;;;;4912171;29;20562;-83
2023/12/04 08:52:44;;;;;;;12.17;8.03;;;-0.30;99.90;;;;;;4911186;29;20193;-91
2023/12/04 08:55:10;;;;;;;11.37;7.67;;;-0.20;99.90;;;;;;4919751;29;20194;-90
2023/12/04 08:57:37;;;;;;;13.03;7.87;;;-0.20;99.90;;;;;;4912037;29;20202;-89
2023/12/04 09:00:04;;;;;;;12.97;8.03;;;-0.20;99.90;;;;;;4921160;29;20192;-90
2023/12/04 09:02:30;;;;;;;11.13;7.80;;;-0.20;99.90;;;;;;4913979;29;20197;-91
2023/12/04 09:04:56;;;;;;;12.43;7.33;;;-0.10;99.90;;;;;;4917334;29;20222;-91
2023/12/04 09:07:22;;;;;;;12.83;7.77;;;-0.10;99.90;;;;;;4921726;29;20318;-88
2023/12/04 09:09:48;;;;;;;11.10;7.23;;;-0.10;99.90;;;;;;4939880;29;20735;-89
2023/12/04 09:12:14;;;;;;;13.23;8.43;;;-0.10;99.90;;;;;;4915009;29;20191;-90
2023/12/04 09:14:40;;;;;;;13.73;7.47;;;0.00;99.90;;;;;;4921030;29;20273;-91
2023/12/04 09:17:05;;;;;;;12.80;7.67;;;0.00;99.90;;;;;;4918523;29;20273;-89
2023/12/04 09:19:32;;;;;;;9.97;7.20;;;0.00;99.90;;;;;;4920869;29;20230;-87
2023/12/04 09:21:57;;;;;;;12.13;7.97;;;0.00;99.90;;;;;;4933568;29;20307;-86
2023/12/04 09:24:23;;;;;;;11.17;7.70;;;0.10;99.90;;;;;;4920571;29;20287;-90
2023/12/04 09:26:49;;;;;;;11.93;7.47;;;0.10;99.90;;;;;;4922388;29;20340;-90
2023/12/04 09:29:16;;;;;;;11.03;7.70;;;0.10;99.90;;;;;;4923450;29;20194;-88
2023/12/04 09:31:42;;;;;;;11.10;7.40;;;0.10;99.90;;;;;;4920664;29;20243;-90
2023/12/04 09:34:09;;;;;;;11.50;7.77;;;0.10;99.90;;;;;;4903850;29;20250;-91
2023/12/04 09:36:35;;;;;;;12.67;7.57;;;0.20;99.90;;;;;;4923120;29;20190;-90
2023/12/04 09:39:04;;;;;;;11.50;7.20;;;0.20;99.90;;;;;;4922514;29;20713;-91
2023/12/04 09:41:30;;;;;;;11.60;8.00;;;0.20;99.90;;;;;;4922209;29;20249;-90
2023/12/04 09:43:56;;;;;;;10.63;7.40;;;0.20;99.90;;;;;;4919085;29;20245;-91
2023/12/04 09:46:22;;;;;;;13.10;8.20;;;0.20;99.90;;;;;;4919187;29;20210;-92
2023/12/04 09:48:52;;;;;;;12.73;7.77;;;0.20;99.90;;;;;;4920166;29;20187;-88
2023/12/04 09:51:20;;;;;;;13.33;7.83;;;0.20;99.90;;;;;;4916567;29;20195;-88
2023/12/04 09:53:47;;;;;;;15.57;9.67;;;0.20;99.90;;;;;;4919176;29;20189;-84
2023/12/04 09:56:15;;;;;;;12.93;8.97;;;0.20;99.90;;;;;;4918976;29;20241;-87
2023/12/04 09:58:42;;;;;;;13.97;8.27;;;0.20;99.90;;;;;;4919994;29;20249;-88
2023/12/04 10:01:09;;;;;;;13.20;9.23;;;0.20;99.90;;;;;;4918937;29;20218;-85
2023/12/04 10:03:36;;;;;;;10.73;7.13;;;0.20;99.90;;;;;;4919829;29;20240;-91
2023/12/04 10:06:04;;;;;;;11.63;7.97;;;0.20;99.90;;;;;;4919723;29;20212;-84
2023/12/04 10:08:31;;;;;;;16.80;10.50;;;0.20;99.90;;;;;;4918206;29;20183;-89
2023/12/04 10:10:56;;;;;;;15.20;8.50;;;0.20;99.90;;;;;;4911324;29;20529;-91
2023/12/04 10:13:23;;;;;;;12.13;7.97;;;0.30;99.90;;;;;;4918445;29;20185;-87
2023/12/04 10:15:50;;;;;;;13.10;8.57;;;0.20;99.90;;;;;;4912006;29;20207;-88
2023/12/04 10:18:31;;;;;;;12.77;8.77;;;0.20;99.90;;;;;;4903649;29;20302;-89
2023/12/04 10:20:58;;;;;;;15.97;10.50;;;0.20;99.90;;;;;;4915772;29;20268;-86
2023/12/04 10:23:41;;;;;;;15.10;10.27;;;0.30;99.90;;;;;;4919213;29;20190;-87
2023/12/04 10:26:07;;;;;;;16.53;10.80;;;0.40;99.90;;;;;;4918073;29;20222;-85
2023/12/04 10:28:35;;;;;;;14.53;10.03;;;0.40;99.90;;;;;;4919364;29;20245;-90
2023/12/04 10:31:01;;;;;;;13.30;8.80;;;0.50;99.90;;;;;;4918458;29;20207;-90
2023/12/04 10:33:29;;;;;;;11.53;7.97;;;0.50;99.90;;;;;;4916584;29;20202;-88
2023/12/04 10:35:55;;;;;;;14.10;9.80;;;0.60;99.90;;;;;;4912345;29;20550;-86
2023/12/04 10:38:23;;;;;;;11.73;7.83;;;0.70;99.90;;;;;;4913885;29;20182;-83
2023/12/04 10:40:49;;;;;;;12.20;8.27;;;0.70;99.90;;;;;;4905093;29;20198;-89
2023/12/04 10:43:19;;;;;;;11.17;7.40;;;0.80;99.90;;;;;;4917361;29;20246;-85
2023/12/04 10:45:46;;;;;;;12.10;7.83;;;0.80;99.90;;;;;;4917680;29;20218;-92
2023/12/04 10:48:14;;;;;;;11.27;7.83;;;0.90;99.90;;;;;;4917825;29;20538;-85
2023/12/04 10:50:42;;;;;;;10.80;7.23;;;0.90;99.90;;;;;;4915445;29;20221;-89
2023/12/04 10:53:09;;;;;;;11.60;7.47;;;0.90;99.90;;;;;;4918933;29;20186;-90
2023/12/04 10:55:35;;;;;;;11.63;7.60;;;1.00;99.90;;;;;;4910281;29;20214;-89
2023/12/04 10:58:09;;;;;;;13.23;7.53;;;1.00;99.90;;;;;;4911118;29;20186;-91
2023/12/04 11:00:46;;;;;;;10.57;7.47;;;1.00;99.90;;;;;;4917743;29;20217;-90
2023/12/04 11:03:28;;;;;;;11.37;7.27;;;1.00;99.90;;;;;;4918775;29;20185;-86
2023/12/04 11:06:00;;;;;;;10.43;7.27;;;1.00;99.90;;;;;;4906119;29;20224;-91
2023/12/04 11:08:32;;;;;;;9.97;6.50;;;1.00;99.90;;;;;;4915784;29;20210;-88
2023/12/04 11:11:09;;;;;;;11.20;6.67;;;1.00;99.90;;;;;;4912509;29;20194;-89
2023/12/04 11:13:41;;;;;;;9.13;6.53;;;1.00;99.90;;;;;;4918786;29;20236;-89
2023/12/04 11:16:18;;;;;;;10.87;7.37;;;1.00;99.90;;;;;;4918757;29;20186;-85
2023/12/04 11:18:51;;;;;;;10.53;6.50;;;1.00;99.90;;;;;;4917355;29;20197;-89
2023/12/04 11:21:20;;;;;;;10.10;6.53;;;1.00;99.90;;;;;;4916158;29;20186;-88
2023/12/04 11:23:53;;;;;;;9.80;6.83;;;0.90;99.90;;;;;;4917612;29;20194;-91
2023/12/04 11:26:20;;;;;;;9.93;6.33;;;0.90;99.90;;;;;;4918633;29;20222;-90
2023/12/04 11:28:47;;;;;;;9.40;6.13;;;0.90;99.90;;;;;;4918280;29;20187;-90
2023/12/04 11:31:14;;;;;;;10.13;6.80;;;0.90;99.90;;;;;;4906516;29;20194;-85
2023/12/04 11:33:40;;;;;;;11.83;6.73;;;0.90;99.90;;;;;;4917146;29;20182;-89
2023/12/04 11:36:11;;;;;;;8.20;5.97;;;0.90;99.90;;;;;;4909205;29;20527;-89
2023/12/04 11:38:38;;;;;;;10.90;6.40;;;0.90;99.90;;;;;;4916793;29;20238;-86
2023/12/04 11:41:20;;;;;;;8.97;6.47;;;0.90;99.90;;;;;;4910684;29;20197;-89
2023/12/04 11:43:51;;;;;;;12.03;8.13;;;0.90;99.90;;;;;;4926782;29;20603;-89
2023/12/04 11:46:27;;;;;;;10.23;7.00;;;0.90;99.90;;;;;;4919894;29;20303;-90
2023/12/04 11:49:17;;;;;;;9.37;6.27;;;1.00;99.90;;;;;;4908884;29;20189;-90
2023/12/04 11:51:46;;;;;;;11.90;7.63;;;1.00;99.90;;;;;;4909973;29;20629;-90
2023/12/04 11:54:15;;;;;;;12.30;6.63;;;1.00;99.90;;;;;;4933718;29;20186;-85
2023/12/04 11:56:55;;;;;;;10.97;7.10;;;1.00;99.90;;;;;;4926348;29;20265;-92
2023/12/04 11:59:22;;;;;;;9.37;6.30;;;1.00;99.90;;;;;;4924350;29;20193;-89
2023/12/04 12:01:53;;;;;;;9.03;6.27;;;0.90;99.90;;;;;;4940991;29;20276;-88
2023/12/04 12:04:20;;;;;;;9.40;6.43;;;0.90;99.90;;;;;;4923968;29;20194;-92
2023/12/04 12:06:45;;;;;;;10.57;6.70;;;0.90;99.90;;;;;;4920675;29;20214;-90
2023/12/04 12:09:11;;;;;;;13.33;7.87;;;0.90;99.90;;;;;;4920144;29;21004;-92
2023/12/04 12:11:37;;;;;;;10.73;7.07;;;0.90;99.90;;;;;;4923497;29;20190;-92
2023/12/04 12:14:04;;;;;;;9.50;6.50;;;0.90;99.90;;;;;;4916272;29;20209;-90
2023/12/04 12:16:32;;;;;;;9.77;6.60;;;0.90;99.90;;;;;;4916171;29;20563;-90
2023/12/04 12:18:57;;;;;;;8.57;5.80;;;0.90;99.90;;;;;;4916019;29;20186;-91
2023/12/04 12:21:26;;;;;;;10.27;6.10;;;0.90;99.90;;;;;;4921671;29;20579;-91
2023/12/04 12:23:51;;;;;;;11.57;6.13;;;0.90;99.90;;;;;;4923808;29;20185;-90
2023/12/04 12:26:17;;;;;;;10.87;6.33;;;0.90;99.90;;;;;;4915740;29;20210;-90
2023/12/04 12:28:43;;;;;;;8.60;6.10;;;0.90;99.90;;;;;;4918612;29;20193;-92
2023/12/04 12:31:11;;;;;;;9.17;6.23;;;0.90;99.90;;;;;;4919166;29;20190;-93
2023/12/04 12:33:37;;;;;;;10.17;6.60;;;0.90;99.90;;;;;;4915076;29;20194;-91
2023/12/04 12:36:03;;;;;;;7.90;5.90;;;0.90;99.90;;;;;;4921180;29;20186;-91
2023/12/04 12:38:34;;;;;;;8.77;5.80;;;0.90;99.90;;;;;;4914152;29;20655;-91